St Ives, United Kingdom
Current Conditions -  °F | °C
As of 1:50 PM on Monday 22 Dec 2014 (Local Time) from EGDR Reporting Station
Haze Haze  
Wind Chill: 54°   Ceiling: 2500
Heat Index: 54°   Visibility: 6mi
Dew Point: 46°   Wind: 17mph
Humidity: 77%   Direction: 240°WSW
Pressure: 30.21"   Gusts: 31mph
Location:  50.21°N, 5.49°W
Report Text: EGDR 221350Z 24015G27KT 9999 HZ FEW012 SCT020 OVC025 12/08 Q1023 WHT
Loading
Personal Weather Stations






























Interactive Weather Map New forecast layout! Learn more

10-Day Weather Forecast

Advertisements
Track Severe Weather on mobile